Time;durP1;ratioP1;P1;durP2;ratioP2;P2;SDS_P1;SDS_P2;PMS_P1;PMS_P2;Temp;Humidity;BMP_temperature;BMP_pressure;BME280_temperature;BME280_humidity;BME280_pressure;Samples;Min_cycle;Max_cycle;Signal;HPM_P1;HPM_P2
2021/11/22 00:00:21;;;;;;;;;0.00;0.00;;;;;6.50;72.09;101370.84;5064167;28;45252;-85
2021/11/22 00:02:47;;;;;;;;;0.00;0.00;;;;;6.56;72.21;101389.19;5065216;28;45275;-85
2021/11/22 00:05:13;;;;;;;;;0.00;0.00;;;;;6.42;72.58;101373.16;5063776;28;45380;-85
2021/11/22 00:07:38;;;;;;;;;1.75;0.00;;;;;6.55;72.26;101396.06;5064048;28;45561;-85
2021/11/22 00:10:05;;;;;;;;;2.00;0.75;;;;;6.61;72.61;101397.13;5062810;28;45450;-86
2021/11/22 00:12:33;;;;;;;;;0.00;0.00;;;;;6.64;72.24;101394.66;5054668;28;45230;-85
2021/11/22 00:15:00;;;;;;;;;0.00;0.00;;;;;6.37;72.56;101362.63;5056104;28;45483;-86
2021/11/22 00:17:25;;;;;;;;;0.00;0.00;;;;;6.39;72.12;101368.75;5055823;28;45222;-86
2021/11/22 00:19:50;;;;;;;;;0.00;0.00;;;;;6.42;72.38;101368.88;5060953;28;47407;-86
2021/11/22 00:22:16;;;;;;;;;0.25;0.25;;;;;6.46;72.07;101377.59;5061982;28;45371;-85
2021/11/22 00:24:41;;;;;;;;;0.00;0.00;;;;;6.51;72.16;101382.94;5061924;28;45863;-85
2021/11/22 00:27:07;;;;;;;;;0.00;0.00;;;;;6.32;72.58;101359.91;5062196;28;45441;-85
2021/11/22 00:29:32;;;;;;;;;0.00;0.00;;;;;6.61;72.16;101391.94;5061788;28;45461;-86
2021/11/22 00:32:01;;;;;;;;;0.00;0.00;;;;;6.46;72.09;101369.84;5063103;28;45387;-85
2021/11/22 00:34:26;;;;;;;;;1.00;0.00;;;;;6.43;71.94;101372.34;5065717;28;45299;-86
2021/11/22 00:36:52;;;;;;;;;0.50;0.00;;;;;6.61;72.39;101399.72;5065903;28;45521;-86
2021/11/22 00:39:17;;;;;;;;;0.00;0.00;;;;;6.33;71.70;101369.44;5065367;28;45376;-86
2021/11/22 00:41:43;;;;;;;;;0.00;0.00;;;;;6.21;72.29;101356.94;5065770;28;45343;-85
2021/11/22 00:44:08;;;;;;;;;0.25;0.00;;;;;6.26;72.35;101377.78;5064428;28;45310;-85
2021/11/22 00:46:33;;;;;;;;;0.00;0.00;;;;;6.23;72.29;101387.13;5034464;28;45643;-86
2021/11/22 00:48:59;;;;;;;;;0.00;0.00;;;;;6.34;72.11;101406.50;5065321;28;45338;-85
2021/11/22 00:51:24;;;;;;;;;0.00;0.00;;;;;6.26;71.69;101403.66;5064307;28;45569;-85
2021/11/22 00:53:50;;;;;;;;;0.00;0.00;;;;;6.27;72.49;101409.69;5065802;28;45450;-85
2021/11/22 00:56:16;;;;;;;;;1.00;0.25;;;;;6.23;72.49;101405.22;5066670;28;45331;-86
2021/11/22 00:58:43;;;;;;;;;0.00;0.00;;;;;6.20;72.23;101390.47;5065529;28;45415;-86
2021/11/22 01:01:09;;;;;;;;;0.00;0.00;;;;;6.19;72.26;101388.72;5065450;28;45472;-86
2021/11/22 01:03:34;;;;;;;;;0.00;0.00;;;;;6.20;72.27;101393.97;5065216;28;45264;-85
2021/11/22 01:06:00;;;;;;;;;0.00;0.00;;;;;6.17;71.69;101395.53;5066076;28;45534;-86
2021/11/22 01:08:25;;;;;;;;;0.00;0.00;;;;;6.33;71.92;101418.56;5065323;28;46362;-85
2021/11/22 01:10:50;;;;;;;;;0.00;0.00;;;;;6.33;71.92;101418.56;5066030;28;45372;-86
2021/11/22 01:13:16;;;;;;;;;0.00;0.00;;;;;6.32;72.02;101423.69;5060798;28;45433;-86
2021/11/22 01:15:44;;;;;;;;;0.00;0.00;;;;;6.14;71.89;101398.00;5047612;28;45671;-85
2021/11/22 01:18:10;;;;;;;;;0.00;0.00;;;;;6.33;71.87;101441.84;5064822;28;46153;-86
2021/11/22 01:20:36;;;;;;;;;0.00;0.00;;;;;6.42;71.82;101449.06;5064909;28;45528;-86
2021/11/22 01:23:10;;;;;;;;;0.00;0.00;;;;;6.25;71.83;101419.97;5046854;28;45319;-85
2021/11/22 01:25:38;;;;;;;;;0.00;0.00;;;;;6.26;71.79;101423.44;5044012;28;45297;-85
2021/11/22 01:28:04;;;;;;;;;0.00;0.00;;;;;6.33;72.00;101433.19;5064447;28;45379;-85
2021/11/22 01:30:29;;;;;;;;;1.25;0.00;;;;;6.29;71.97;101437.38;5064474;28;45359;-85
2021/11/22 01:32:55;;;;;;;;;0.00;0.00;;;;;6.36;71.77;101446.22;5077744;28;45380;-85
2021/11/22 01:35:21;;;;;;;;;0.75;0.00;;;;;5.93;71.63;101389.47;5085706;28;45326;-86
2021/11/22 01:37:48;;;;;;;;;0.00;0.00;;;;;6.16;71.38;101417.91;5085210;28;45274;-85
2021/11/22 01:40:17;;;;;;;;;0.00;0.00;;;;;6.28;71.66;101438.19;5085304;28;45306;-85
2021/11/22 01:42:43;;;;;;;;;0.00;0.00;;;;;6.33;71.37;101443.53;5085408;28;45308;-85
2021/11/22 01:45:13;;;;;;;;;0.00;0.00;;;;;6.32;71.42;101437.50;5086573;28;45514;-85
2021/11/22 01:47:39;;;;;;;;;0.00;0.00;;;;;6.23;71.31;101416.47;5103858;27;47119;-86
2021/11/22 01:50:07;;;;;;;;;0.00;0.00;;;;;6.12;71.36;101407.44;5088594;28;45233;-85
2021/11/22 01:52:33;;;;;;;;;0.00;0.00;;;;;6.39;71.63;101448.03;5088356;28;45347;-86
2021/11/22 01:54:58;;;;;;;;;0.00;0.00;;;;;6.31;71.10;101440.88;5088707;28;45362;-85
2021/11/22 01:57:24;;;;;;;;;0.25;0.25;;;;;6.37;71.07;101447.13;5104292;27;48249;-85
2021/11/22 01:59:49;;;;;;;;;0.00;0.00;;;;;6.12;71.27;101415.19;5087622;28;45299;-86
2021/11/22 02:02:15;;;;;;;;;0.00;0.00;;;;;6.25;71.18;101435.47;5088008;28;45422;-85
2021/11/22 02:04:40;;;;;;;;;0.00;0.00;;;;;6.38;70.99;101469.56;5103438;27;45260;-85
2021/11/22 02:07:06;;;;;;;;;0.00;0.00;;;;;6.29;71.24;101450.31;5087552;28;45237;-86
2021/11/22 02:09:32;;;;;;;;;1.00;0.50;;;;;6.41;70.85;101474.88;5083555;28;45279;-86
2021/11/22 02:11:58;;;;;;;;;0.00;0.00;;;;;6.20;70.80;101439.59;5086766;28;45257;-84
2021/11/22 02:14:24;;;;;;;;;0.75;0.00;;;;;6.15;71.03;101435.94;5097582;28;45152;-85
2021/11/22 02:16:49;;;;;;;;;0.00;0.00;;;;;6.14;71.25;101444.53;5096998;28;45376;-85
2021/11/22 02:19:14;;;;;;;;;0.00;0.00;;;;;6.03;70.74;101437.22;5088826;28;45183;-86
2021/11/22 02:21:40;;;;;;;;;0.00;0.00;;;;;5.94;70.82;101435.16;5086282;28;45367;-85
2021/11/22 02:24:05;;;;;;;;;1.00;1.00;;;;;6.07;71.04;101472.72;5101121;27;45396;-84
2021/11/22 02:26:31;;;;;;;;;0.00;0.00;;;;;6.11;71.24;101493.53;5084494;28;45386;-85
2021/11/22 02:28:56;;;;;;;;;0.00;0.00;;;;;5.88;70.79;101442.66;5083163;28;45332;-85
2021/11/22 02:31:22;;;;;;;;;0.00;0.00;;;;;5.92;71.12;101467.84;5100785;27;45373;-85
2021/11/22 02:33:52;;;;;;;;;0.75;0.75;;;;;5.96;71.23;101474.00;5084797;28;45338;-84
2021/11/22 02:36:18;;;;;;;;;0.00;0.00;;;;;6.00;71.24;101483.63;5084640;28;46192;-85
2021/11/22 02:38:44;;;;;;;;;0.00;0.00;;;;;6.05;71.11;101494.19;5084561;28;45410;-85
2021/11/22 02:41:10;;;;;;;;;0.75;0.75;;;;;5.97;71.46;101491.25;5084758;28;45235;-85
2021/11/22 02:43:38;;;;;;;;;0.67;0.00;;;;;6.02;71.40;101492.34;5083274;28;45364;-85
2021/11/22 02:46:05;;;;;;;;;0.00;0.00;;;;;5.98;71.45;101485.28;5099904;27;46496;-85
2021/11/22 02:48:30;;;;;;;;;0.00;0.00;;;;;5.97;71.22;101483.50;5084025;28;45349;-85
2021/11/22 02:50:56;;;;;;;;;0.00;0.00;;;;;6.02;71.33;101497.50;5066081;28;45396;-85
2021/11/22 02:53:26;;;;;;;;;0.25;0.00;;;;;5.99;71.19;101488.72;5084656;28;45212;-86
2021/11/22 02:55:57;;;;;;;;;0.00;0.00;;;;;5.92;71.19;101485.03;5107490;27;47678;-84
2021/11/22 02:58:23;;;;;;;;;0.00;0.00;;;;;5.96;71.33;101500.72;5095429;28;45164;-85
2021/11/22 03:00:49;;;;;;;;;0.00;0.00;;;;;5.82;71.73;101483.78;5103459;27;45254;-85
2021/11/22 03:03:15;;;;;;;;;0.00;0.00;;;;;5.72;71.52;101471.31;5084274;28;45238;-86
2021/11/22 03:05:40;;;;;;;;;0.00;0.00;;;;;5.76;71.95;101488.72;5083950;28;45386;-85
2021/11/22 03:08:05;;;;;;;;;0.00;0.00;;;;;5.92;71.62;101508.28;5084107;28;45280;-86
2021/11/22 03:10:31;;;;;;;;;0.00;0.00;;;;;5.88;71.30;101512.44;5099821;27;45481;-85
2021/11/22 03:12:58;;;;;;;;;0.00;0.00;;;;;5.63;71.31;101469.25;5082786;28;45371;-85
2021/11/22 03:15:24;;;;;;;;;1.00;0.00;;;;;5.77;71.59;101500.78;5083518;28;45326;-85
2021/11/22 03:17:49;;;;;;;;;0.00;0.00;;;;;5.69;71.42;101495.31;5099083;27;45935;-85
2021/11/22 03:20:18;;;;;;;;;0.00;0.00;;;;;5.75;71.37;101505.00;5084176;28;45353;-85
2021/11/22 03:22:44;;;;;;;;;0.00;0.00;;;;;5.72;71.55;101508.34;5099917;27;45403;-86
2021/11/22 03:25:11;;;;;;;;;0.00;0.00;;;;;5.76;71.61;101520.56;5083515;28;45414;-86
2021/11/22 03:27:38;;;;;;;;;0.00;0.00;;;;;5.65;71.59;101507.22;5098995;27;46198;-86
2021/11/22 03:30:06;;;;;;;;;0.00;0.00;;;;;5.50;71.64;101475.59;5065434;28;45291;-86
2021/11/22 03:32:32;;;;;;;;;0.00;0.00;;;;;5.28;71.30;101459.19;5073814;28;45512;-86
2021/11/22 03:34:58;;;;;;;;;0.00;0.00;;;;;5.53;71.65;101506.72;5063347;28;45459;-86
2021/11/22 03:37:24;;;;;;;;;0.75;0.75;;;;;5.64;71.60;101520.94;5063036;28;45220;-86
2021/11/22 03:39:52;;;;;;;;;0.00;0.00;;;;;5.57;71.85;101525.00;5045174;28;45385;-86
2021/11/22 03:42:18;;;;;;;;;0.00;0.00;;;;;5.45;71.77;101496.94;5063691;28;45367;-85
2021/11/22 03:44:45;;;;;;;;;0.00;0.00;;;;;5.44;71.82;101489.13;5078592;28;48107;-86
2021/11/22 03:47:11;;;;;;;;;0.00;0.00;;;;;5.67;71.95;101527.97;5061429;28;46151;-86
2021/11/22 03:49:37;;;;;;;;;0.00;0.00;;;;;5.55;71.63;101520.59;5063171;28;45257;-85
2021/11/22 03:52:03;;;;;;;;;0.00;0.00;;;;;5.47;71.61;101502.19;5078939;28;45278;-86
2021/11/22 03:54:29;;;;;;;;;0.00;0.00;;;;;5.57;71.56;101524.09;5062758;28;45429;-86
2021/11/22 03:56:55;;;;;;;;;2.00;0.00;;;;;5.50;71.90;101512.63;5062952;28;45284;-86
2021/11/22 03:59:20;;;;;;;;;0.00;0.00;;;;;5.44;71.67;101502.03;5061698;28;45470;-86
2021/11/22 04:01:45;;;;;;;;;0.00;0.00;;;;;5.41;71.67;101509.66;5063027;28;45426;-86
2021/11/22 04:04:11;;;;;;;;;0.25;0.25;;;;;5.41;71.50;101507.06;5062393;28;46267;-86
2021/11/22 04:06:37;;;;;;;;;0.00;0.00;;;;;5.40;72.08;101515.66;5062619;28;45307;-85
2021/11/22 04:09:04;;;;;;;;;0.00;0.00;;;;;5.42;71.87;101522.63;5064086;28;45501;-85
2021/11/22 04:11:31;;;;;;;;;0.00;0.00;;;;;5.60;71.87;101560.38;5078264;28;45527;-86
2021/11/22 04:13:56;;;;;;;;;1.00;0.00;;;;;5.46;72.41;101531.41;5061173;28;46935;-85
2021/11/22 04:16:21;;;;;;;;;0.00;0.00;;;;;5.36;71.54;101511.19;5075849;28;45258;-85
2021/11/22 04:18:49;;;;;;;;;0.00;0.00;;;;;5.55;71.30;101547.28;5080214;28;44669;-85
2021/11/22 04:21:17;;;;;;;;;0.00;0.00;;;;;5.56;72.05;101550.75;5083099;28;45242;-85
2021/11/22 04:23:43;;;;;;;;;0.00;0.00;;;;;5.35;71.93;101522.31;5085180;28;47300;-84
2021/11/22 04:26:10;;;;;;;;;0.00;0.00;;;;;5.66;72.05;101565.81;5086647;28;44770;-82
2021/11/22 04:28:37;;;;;;;;;1.00;1.00;;;;;5.66;71.72;101562.34;5081868;28;45288;-84
2021/11/22 04:31:03;;;;;;;;;0.00;0.00;;;;;5.43;71.93;101542.47;5068024;28;45265;-86
2021/11/22 04:33:28;;;;;;;;;0.00;0.00;;;;;5.61;71.62;101562.19;5081162;28;47242;-85
2021/11/22 04:35:54;;;;;;;;;0.00;0.00;;;;;5.53;71.44;101553.19;5067631;28;45302;-86
2021/11/22 04:38:19;;;;;;;;;1.00;1.00;;;;;5.63;71.99;101577.75;5100873;27;45226;-85
2021/11/22 04:40:45;;;;;;;;;0.25;0.25;;;;;5.55;71.42;101565.34;5084347;28;45512;-85
2021/11/22 04:43:10;;;;;;;;;0.00;0.00;;;;;5.53;71.90;101574.75;5084035;28;46294;-85
2021/11/22 04:45:35;;;;;;;;;0.00;0.00;;;;;5.34;71.50;101542.09;5083965;28;45130;-85
2021/11/22 04:48:04;;;;;;;;;0.00;0.00;;;;;5.52;71.54;101574.69;5082538;28;45476;-85
2021/11/22 04:50:30;;;;;;;;;0.00;0.00;;;;;5.33;71.82;101551.53;5082803;28;45322;-86
2021/11/22 04:52:56;;;;;;;;;0.00;0.00;;;;;5.62;71.86;101605.28;5082058;28;45407;-86
2021/11/22 04:55:22;;;;;;;;;0.00;0.00;;;;;5.38;71.39;101563.75;5080836;28;45755;-85
2021/11/22 04:57:48;;;;;;;;;0.75;0.75;;;;;5.44;71.64;101579.53;5082391;28;45255;-85
2021/11/22 05:00:17;;;;;;;;;0.00;0.00;;;;;5.44;71.60;101574.34;5079259;28;45521;-86
2021/11/22 05:02:45;;;;;;;;;0.00;0.00;;;;;5.65;71.71;101607.97;5061693;28;46351;-86
2021/11/22 05:05:11;;;;;;;;;0.00;0.00;;;;;5.42;71.50;101578.59;5060319;28;45320;-85
2021/11/22 05:07:38;;;;;;;;;0.00;0.00;;;;;5.54;71.76;101606.63;5062318;28;45284;-86
2021/11/22 05:10:05;;;;;;;;;0.50;0.50;;;;;5.47;71.36;101579.66;5066088;28;45259;-85
2021/11/22 05:12:31;;;;;;;;;1.00;0.00;;;;;5.57;71.49;101596.41;5070789;28;46995;-85
2021/11/22 05:14:57;;;;;;;;;0.00;0.00;;;;;5.61;71.46;101613.84;5071509;28;45306;-85
2021/11/22 05:17:22;;;;;;;;;0.00;0.00;;;;;5.74;71.48;101616.94;5061296;28;45458;-84
2021/11/22 05:19:48;;;;;;;;;0.00;0.00;;;;;5.70;71.19;101626.28;5060162;28;45478;-85
2021/11/22 05:22:19;;;;;;;;;0.00;0.00;;;;;5.70;71.59;101634.03;5065319;28;46235;-85
2021/11/22 05:24:49;;;;;;;;;1.00;1.00;;;;;5.83;71.30;101649.22;5064151;28;45245;-85
2021/11/22 05:27:19;;;;;;;;;1.00;0.00;;;;;5.75;71.11;101632.50;5064478;28;45355;-84
2021/11/22 05:29:45;;;;;;;;;0.00;0.00;;;;;5.87;71.48;101659.69;5066614;28;45165;-85
2021/11/22 05:32:15;;;;;;;;;0.00;0.00;;;;;5.73;71.26;101635.84;5085430;27;47194;-85
2021/11/22 05:34:41;;;;;;;;;0.00;0.00;;;;;5.82;71.10;101652.63;5045515;28;45414;-84
2021/11/22 05:37:06;;;;;;;;;0.00;0.00;;;;;5.63;71.15;101632.00;5063459;28;45408;-84
2021/11/22 05:39:32;;;;;;;;;0.00;0.00;;;;;5.68;70.83;101652.03;5071072;28;45269;-85
2021/11/22 05:41:57;;;;;;;;;2.25;1.00;;;;;5.55;71.75;101637.69;5078850;28;47081;-84
2021/11/22 05:44:22;;;;;;;;;1.50;1.00;;;;;5.67;71.32;101672.66;5046392;28;45430;-85
2021/11/22 05:46:50;;;;;;;;;0.00;0.00;;;;;5.64;71.46;101668.19;5069205;28;46030;-85
2021/11/22 05:49:15;;;;;;;;;1.00;0.00;;;;;5.53;71.48;101644.50;5062553;28;45274;-85
2021/11/22 05:51:43;;;;;;;;;0.50;0.50;;;;;5.65;71.61;101674.25;5078674;27;47806;-85
2021/11/22 05:54:09;;;;;;;;;0.00;0.00;;;;;5.35;71.52;101621.31;5079454;28;45309;-85
2021/11/22 05:56:34;;;;;;;;;1.25;1.25;;;;;5.73;71.87;101677.19;5061020;28;45512;-85
2021/11/22 05:59:00;;;;;;;;;1.00;1.00;;;;;5.71;71.74;101656.44;5071585;28;45531;-84
2021/11/22 06:01:25;;;;;;;;;0.00;0.00;;;;;5.75;71.53;101660.94;5077708;27;47217;-79
2021/11/22 06:03:52;;;;;;;;;0.00;0.00;;;;;5.71;71.29;101669.38;5078703;28;45377;-79
2021/11/22 06:06:17;;;;;;;;;0.00;0.00;;;;;5.61;71.48;101656.88;5077377;28;45459;-80
2021/11/22 06:08:43;;;;;;;;;2.00;0.00;;;;;5.70;71.45;101665.03;5061902;28;46385;-80
2021/11/22 06:11:09;;;;;;;;;0.00;0.00;;;;;5.89;71.32;101694.25;5078301;28;45585;-80
2021/11/22 06:13:34;;;;;;;;;1.00;1.00;;;;;5.90;71.34;101694.31;5063177;28;45376;-80
2021/11/22 06:16:00;;;;;;;;;0.75;0.75;;;;;5.67;71.57;101654.56;5063088;28;45400;-80
2021/11/22 06:18:25;;;;;;;;;0.00;0.00;;;;;5.93;71.28;101714.22;5074924;27;45197;-80
2021/11/22 06:20:51;;;;;;;;;2.75;0.75;;;;;5.78;71.45;101712.75;5042079;28;45433;-80
2021/11/22 06:23:24;;;;;;;;;0.75;0.00;;;;;5.61;71.19;101681.00;5057221;28;45456;-80
2021/11/22 06:25:49;;;;;;;;;3.00;1.00;;;;;5.77;71.51;101707.50;5057908;28;45235;-79
2021/11/22 06:28:15;;;;;;;;;1.50;1.00;;;;;5.75;71.68;101703.97;5042073;28;45256;-79
2021/11/22 06:30:40;;;;;;;;;0.00;0.00;;;;;5.89;71.45;101733.91;5042158;28;45443;-79
2021/11/22 06:33:06;;;;;;;;;1.00;1.00;;;;;5.78;71.58;101715.34;5079378;27;45373;-79
2021/11/22 06:35:33;;;;;;;;;0.00;0.00;;;;;5.90;71.38;101737.34;5044210;28;45445;-80
2021/11/22 06:38:02;;;;;;;;;0.00;0.00;;;;;5.70;71.74;101714.97;5042384;28;45350;-81
2021/11/22 06:40:27;;;;;;;;;0.25;0.00;;;;;5.70;71.78;101727.03;5040417;28;45404;-82
2021/11/22 06:42:52;;;;;;;;;0.75;0.00;;;;;5.89;71.61;101782.13;5057563;28;45264;-79
2021/11/22 06:45:18;;;;;;;;;0.75;0.00;;;;;5.63;71.71;101728.44;5045819;28;45461;-80
2021/11/22 06:47:44;;;;;;;;;0.00;0.00;;;;;5.93;72.21;101784.00;5047130;27;45429;-80
2021/11/22 06:50:10;;;;;;;;;0.50;0.00;;;;;5.98;72.18;101768.72;5041355;28;45404;-79
2021/11/22 06:52:36;;;;;;;;;0.75;0.75;;;;;5.87;71.77;101757.88;5041095;28;45420;-81
2021/11/22 06:55:01;;;;;;;;;0.00;0.00;;;;;5.66;71.60;101720.84;5043597;28;45427;-79
2021/11/22 06:57:28;;;;;;;;;3.00;2.00;;;;;5.95;71.83;101765.16;5073619;27;45473;-78
2021/11/22 06:59:56;;;;;;;;;0.50;0.50;;;;;5.87;71.87;101737.22;5055970;28;46352;-79
2021/11/22 07:02:24;;;;;;;;;1.00;1.00;;;;;6.14;71.25;101789.31;5054344;28;45589;-81
2021/11/22 07:04:58;;;;;;;;;2.00;2.00;;;;;5.73;71.77;101721.13;5060034;28;45334;-82
2021/11/22 07:07:25;;;;;;;;;0.00;0.00;;;;;5.65;71.20;101718.19;5042343;28;45673;-80
2021/11/22 07:09:51;;;;;;;;;0.00;0.00;;;;;6.24;71.29;101807.78;5040722;28;45226;-79
2021/11/22 07:12:16;;;;;;;;;0.25;0.00;;;;;6.24;71.42;101811.25;5040479;28;45496;-79
2021/11/22 07:14:43;;;;;;;;;2.00;1.00;;;;;6.19;71.19;101812.78;5041358;28;45485;-86
2021/11/22 07:17:10;;;;;;;;;2.00;0.50;;;;;6.02;71.12;101789.59;5041866;28;45441;-85
2021/11/22 07:19:35;;;;;;;;;0.50;0.50;;;;;6.08;71.41;101797.66;5043777;28;47503;-86
2021/11/22 07:22:04;;;;;;;;;0.00;0.00;;;;;5.87;71.56;101756.19;5061350;28;45347;-85
2021/11/22 07:24:30;;;;;;;;;1.00;1.00;;;;;6.15;71.31;101800.50;5041882;28;45353;-86
2021/11/22 07:26:55;;;;;;;;;0.00;0.00;;;;;6.22;71.13;101807.75;5042474;28;45349;-85
2021/11/22 07:29:21;;;;;;;;;0.00;0.00;;;;;6.30;70.67;101829.63;5056643;28;46065;-85
2021/11/22 07:31:46;;;;;;;;;1.00;1.00;;;;;6.14;71.08;101797.06;5081885;27;45320;-86
2021/11/22 07:34:12;;;;;;;;;0.75;0.75;;;;;6.10;70.98;101789.09;5059193;28;45861;-87
2021/11/22 07:36:37;;;;;;;;;0.00;0.00;;;;;6.37;70.78;101848.03;5042262;28;45414;-86
2021/11/22 07:39:03;;;;;;;;;0.00;0.00;;;;;6.24;70.84;101824.19;5041538;28;46577;-85
2021/11/22 07:41:29;;;;;;;;;0.00;0.00;;;;;6.20;70.49;101825.78;5040727;28;45456;-87
2021/11/22 07:43:54;;;;;;;;;1.50;0.00;;;;;6.37;70.69;101845.44;5059551;28;45422;-86
2021/11/22 07:46:23;;;;;;;;;0.00;0.00;;;;;6.46;70.57;101866.50;5073714;28;45386;-87
2021/11/22 07:48:48;;;;;;;;;1.00;0.00;;;;;6.11;70.43;101817.59;5074026;28;47310;-87
2021/11/22 07:51:14;;;;;;;;;0.00;0.00;;;;;6.41;69.90;101873.19;5065189;28;45354;-86
2021/11/22 07:53:40;;;;;;;;;0.25;0.00;;;;;5.79;70.09;101768.78;5079196;27;45367;-87
2021/11/22 07:56:07;;;;;;;;;1.50;1.00;;;;;6.32;70.02;101840.06;5060142;28;45446;-86
2021/11/22 07:58:32;;;;;;;;;0.00;0.00;;;;;6.56;70.25;101875.56;5037045;28;45402;-80
2021/11/22 08:00:58;;;;;;;;;0.50;0.00;;;;;6.60;70.09;101895.59;5035369;28;45487;-82
2021/11/22 08:03:24;;;;;;;;;0.00;0.00;;;;;6.62;69.74;101885.31;5049120;28;45786;-80
2021/11/22 08:05:51;;;;;;;;;0.00;0.00;;;;;6.76;69.89;101898.81;5045143;28;45491;-82
2021/11/22 08:08:17;;;;;;;;;1.00;0.25;;;;;6.78;69.72;101897.19;5058424;28;47256;-79
2021/11/22 08:10:47;;;;;;;;;1.00;1.00;;;;;6.56;69.62;101876.44;5041630;28;45441;-78
2021/11/22 08:13:12;;;;;;;;;3.50;0.50;;;;;6.59;69.28;101881.75;5038809;28;45413;-77
2021/11/22 08:15:38;;;;;;;;;0.75;0.75;;;;;6.79;69.30;101901.53;5054132;28;45477;-78
2021/11/22 08:18:06;;;;;;;;;1.50;0.00;;;;;6.82;69.38;101884.47;5059950;28;45551;-80
2021/11/22 08:20:32;;;;;;;;;0.00;0.00;;;;;6.93;69.13;101903.06;5061148;28;45529;-80
2021/11/22 08:22:57;;;;;;;;;0.00;0.00;;;;;6.84;69.32;101890.56;5061989;28;45485;-81
2021/11/22 08:25:26;;;;;;;;;0.75;0.75;;;;;6.80;68.96;101872.28;5053660;28;45589;-81
2021/11/22 08:27:54;;;;;;;;;0.00;0.00;;;;;6.99;69.23;101915.38;5069757;28;46671;-81
2021/11/22 08:30:23;;;;;;;;;1.00;1.00;;;;;6.92;68.91;101896.09;5059673;28;45482;-81
2021/11/22 08:32:50;;;;;;;;;0.50;0.50;;;;;6.95;68.43;101887.56;5062729;28;45288;-81
2021/11/22 08:35:18;;;;;;;;;0.00;0.00;;;;;7.08;68.26;101902.78;5066531;28;45328;-80
2021/11/22 08:37:44;;;;;;;;;2.00;0.25;;;;;7.08;68.38;101918.31;5072046;28;46059;-80
2021/11/22 08:40:13;;;;;;;;;0.00;0.00;;;;;7.15;68.44;101919.47;5068082;28;45418;-80
2021/11/22 08:42:38;;;;;;;;;0.25;0.25;;;;;7.07;68.32;101906.19;5068276;28;45429;-78
2021/11/22 08:45:05;;;;;;;;;1.75;0.00;;;;;6.90;67.89;101889.06;5061247;28;45383;-81
2021/11/22 08:47:31;;;;;;;;;0.00;0.00;;;;;7.06;67.92;101899.25;5070974;28;45340;-81
2021/11/22 08:49:56;;;;;;;;;0.00;0.00;;;;;7.12;67.77;101914.16;5065110;28;45540;-79
2021/11/22 08:52:23;;;;;;;;;0.00;0.00;;;;;7.20;67.62;101924.84;5067291;28;45481;-79
2021/11/22 08:54:49;;;;;;;;;0.00;0.00;;;;;7.21;67.15;101914.56;5069564;28;45454;-80
2021/11/22 08:57:15;;;;;;;;;0.00;0.00;;;;;7.40;66.85;101954.16;5064886;28;45515;-82
2021/11/22 08:59:41;;;;;;;;;0.00;0.00;;;;;7.26;66.23;101932.00;5066069;28;45441;-79
2021/11/22 09:02:09;;;;;;;;;0.00;0.00;;;;;7.22;66.53;101924.09;5072857;28;45510;-79
2021/11/22 09:04:34;;;;;;;;;1.00;1.00;;;;;7.28;66.40;101948.47;5063330;28;45423;-80
2021/11/22 09:07:00;;;;;;;;;0.00;0.00;;;;;7.32;66.71;101953.84;5070402;28;45287;-77
2021/11/22 09:09:26;;;;;;;;;0.00;0.00;;;;;7.22;66.79;101930.97;5067701;28;45298;-80
2021/11/22 09:11:51;;;;;;;;;0.00;0.00;;;;;7.30;66.21;101947.72;5066597;28;45489;-81
2021/11/22 09:14:17;;;;;;;;;0.00;0.00;;;;;7.44;66.56;101948.28;5065410;28;45518;-79
2021/11/22 09:16:42;;;;;;;;;0.00;0.00;;;;;7.64;66.19;101961.19;5062026;28;46095;-80
2021/11/22 09:19:08;;;;;;;;;0.25;0.00;;;;;7.59;66.49;101950.63;5073321;28;45331;-78
2021/11/22 09:21:34;;;;;;;;;0.00;0.00;;;;;7.60;66.71;101947.19;5079843;28;45456;-79
2021/11/22 09:24:01;;;;;;;;;0.75;0.00;;;;;7.55;65.52;101930.59;5070847;28;45557;-79
2021/11/22 09:26:27;;;;;;;;;0.00;0.00;;;;;7.69;66.04;101953.59;5062714;28;45648;-78
2021/11/22 09:28:52;;;;;;;;;0.00;0.00;;;;;7.66;66.11;101950.88;5074527;28;45436;-80
2021/11/22 09:31:18;;;;;;;;;0.00;0.00;;;;;7.68;65.76;101951.81;5064519;28;45592;-81
2021/11/22 09:33:45;;;;;;;;;0.00;0.00;;;;;7.76;65.14;101967.69;5072011;28;45421;-80
2021/11/22 09:36:11;;;;;;;;;0.00;0.00;;;;;7.73;65.36;101974.53;5065050;28;46005;-80
2021/11/22 09:38:37;;;;;;;;;0.00;0.00;;;;;7.83;65.05;101980.94;5066708;28;45452;-79
2021/11/22 09:41:03;;;;;;;;;0.75;0.75;;;;;7.77;64.53;101959.97;5063895;28;45486;-80
2021/11/22 09:43:30;;;;;;;;;0.25;0.25;;;;;7.83;64.50;101995.63;5063762;28;45385;-81
2021/11/22 09:45:56;;;;;;;;;1.00;1.00;;;;;7.89;64.87;102001.06;5063597;28;47307;-80
2021/11/22 09:48:22;;;;;;;;;0.00;0.00;;;;;7.90;64.59;101999.34;5067038;28;45406;-81
2021/11/22 09:50:47;;;;;;;;;0.00;0.00;;;;;7.63;65.12;101974.97;5045787;28;45728;-80
2021/11/22 09:53:13;;;;;;;;;0.00;0.00;;;;;7.81;64.48;102002.47;5060238;28;45483;-80
2021/11/22 09:55:38;;;;;;;;;0.00;0.00;;;;;7.73;64.18;102010.81;5063254;28;46146;-80
2021/11/22 09:58:07;;;;;;;;;0.00;0.00;;;;;7.75;63.93;102009.97;5062092;28;45449;-77
2021/11/22 10:00:39;;;;;;;;;0.00;0.00;;;;;7.54;64.04;101970.31;5061810;28;45376;-78
2021/11/22 10:03:19;;;;;;;;;0.00;0.00;;;;;7.83;63.53;102005.97;5061729;28;45683;-79
2021/11/22 10:05:45;;;;;;;;;1.00;0.00;;;;;7.93;62.77;102018.50;5079070;27;48659;-81
2021/11/22 10:08:18;;;;;;;;;0.00;0.00;;;;;7.83;62.49;102003.38;5064014;28;45604;-80
2021/11/22 10:10:56;;;;;;;;;0.00;0.00;;;;;7.70;62.60;102017.56;5064368;28;45458;-81
2021/11/22 10:13:27;;;;;;;;;2.00;0.75;;;;;7.60;62.66;102018.91;5064674;28;45632;-80
2021/11/22 10:15:57;;;;;;;;;0.00;0.00;;;;;7.55;62.97;102023.88;5066154;28;46217;-79
2021/11/22 10:18:25;;;;;;;;;1.00;0.00;;;;;7.47;63.25;102004.53;5060521;28;45520;-79
2021/11/22 10:20:52;;;;;;;;;0.25;0.00;;;;;7.60;63.71;102014.59;5060290;28;45457;-78
2021/11/22 10:23:38;;;;;;;;;2.00;0.00;;;;;7.62;63.76;102011.19;5062481;28;45327;-78
2021/11/22 10:26:08;;;;;;;;;0.00;0.00;;;;;7.76;63.17;102035.97;5062876;28;46397;-80
2021/11/22 10:28:38;;;;;;;;;0.00;0.00;;;;;7.68;63.34;102016.59;5077182;28;45779;-81
2021/11/22 10:31:09;;;;;;;;;0.00;0.00;;;;;7.53;62.42;101999.59;5061447;28;45431;-79
2021/11/22 10:33:37;;;;;;;;;1.00;0.00;;;;;7.66;63.24;102026.91;5078469;27;45363;-80
2021/11/22 10:36:05;;;;;;;;;0.00;0.00;;;;;7.65;63.08;102026.84;5042562;28;47448;-80
2021/11/22 10:38:36;;;;;;;;;0.00;0.00;;;;;7.49;62.61;101997.72;5058880;28;45506;-78
2021/11/22 10:41:05;;;;;;;;;0.00;0.00;;;;;7.45;62.74;102003.59;5043104;28;45501;-80
2021/11/22 10:43:35;;;;;;;;;0.00;0.00;;;;;7.41;62.70;102007.75;5059072;28;45379;-79
2021/11/22 10:46:05;;;;;;;;;0.00;0.00;;;;;7.55;62.78;102038.53;5061941;28;46345;-78
2021/11/22 10:48:31;;;;;;;;;0.00;0.00;;;;;7.50;63.59;102027.13;5060181;28;45465;-81
2021/11/22 10:51:08;;;;;;;;;0.00;0.00;;;;;7.65;63.29;102048.47;5061595;28;45335;-79
2021/11/22 10:53:55;;;;;;;;;1.00;1.00;;;;;7.55;62.72;102031.66;5062834;28;45461;-81
2021/11/22 10:56:27;;;;;;;;;0.50;0.00;;;;;7.69;61.75;102044.31;5075681;27;47361;-81
2021/11/22 10:59:06;;;;;;;;;0.00;0.00;;;;;7.85;62.57;102041.50;5059733;28;45450;-80
2021/11/22 11:01:38;;;;;;;;;0.00;0.00;;;;;8.00;62.70;102042.97;5063947;28;45499;-79
2021/11/22 11:04:14;;;;;;;;;1.50;1.50;;;;;8.16;62.04;102053.97;5060556;28;45377;-79
2021/11/22 11:06:45;;;;;;;;;0.75;0.75;;;;;7.89;61.59;101995.88;5062205;28;46225;-80
2021/11/22 11:09:21;;;;;;;;;1.00;1.00;;;;;8.12;61.44;102050.38;5057526;28;45984;-79
2021/11/22 11:11:52;;;;;;;;;0.00;0.00;;;;;8.10;61.59;102052.91;5037256;28;45491;-82
2021/11/22 11:20:26;;;;;;;;;0.75;0.75;;;;;7.63;61.10;102019.03;5058163;28;45482;-81
2021/11/22 11:22:54;;;;;;;;;0.00;0.00;;;;;7.50;61.79;102007.25;5061820;28;45453;-81
2021/11/22 11:25:36;;;;;;;;;1.00;0.75;;;;;7.41;62.00;101987.03;5042033;28;45450;-84
2021/11/22 11:28:11;;;;;;;;;1.00;1.00;;;;;7.85;61.09;102045.84;5042905;28;45713;-83
2021/11/22 11:30:41;;;;;;;;;1.00;0.00;;;;;7.16;61.40;101917.75;5068021;28;45516;-83
2021/11/22 11:36:11;;;;;;;;;0.00;0.00;;;;;7.75;61.41;101977.16;5053721;28;45404;-83
2021/11/22 11:39:01;;;;;;;;;0.00;0.00;;;;;8.26;60.74;102037.03;5054878;28;46942;-81
2021/11/22 11:41:48;;;;;;;;;0.75;0.00;;;;;8.11;61.09;102007.97;5074993;27;45767;-80